createdAt,value
2019-05-22T00:02:41.423Z,99.90
2019-05-22T00:05:32.774Z,99.90
2019-05-22T00:08:23.847Z,99.90
2019-05-22T00:11:08.748Z,99.90
2019-05-22T00:13:59.657Z,99.90
2019-05-22T00:16:49.658Z,99.90
2019-05-22T00:19:38.695Z,99.90
2019-05-22T00:22:33.460Z,99.90
2019-05-22T00:25:26.570Z,99.90
2019-05-22T00:28:16.926Z,99.90
2019-05-22T00:31:01.453Z,99.90
2019-05-22T00:33:50.655Z,99.90
2019-05-22T00:36:40.870Z,99.90
2019-05-22T00:39:30.635Z,99.90
2019-05-22T00:42:20.846Z,99.90
2019-05-22T00:45:12.779Z,99.90
2019-05-22T00:48:03.227Z,99.90
2019-05-22T00:51:16.215Z,99.90
2019-05-22T00:54:38.403Z,99.90
2019-05-22T00:57:32.932Z,99.90
2019-05-22T01:00:29.003Z,99.90
2019-05-22T01:03:21.239Z,99.90
2019-05-22T01:06:12.881Z,99.90
2019-05-22T01:09:07.841Z,99.90
2019-05-22T01:11:56.800Z,99.90
2019-05-22T01:14:49.944Z,99.90
2019-05-22T01:17:41.080Z,99.90
2019-05-22T01:20:32.206Z,99.90
2019-05-22T01:23:23.584Z,99.90
2019-05-22T01:26:19.181Z,99.90
2019-05-22T01:29:09.031Z,99.90
2019-05-22T01:32:00.336Z,99.90
2019-05-22T01:34:50.968Z,99.90
2019-05-22T01:37:42.519Z,99.90
2019-05-22T01:40:47.006Z,99.90
2019-05-22T01:43:37.347Z,99.90
2019-05-22T01:46:28.751Z,99.90
2019-05-22T01:49:18.465Z,99.90
2019-05-22T01:52:09.324Z,99.90
2019-05-22T01:54:59.807Z,99.90
2019-05-22T01:57:49.892Z,99.90
2019-05-22T02:00:41.440Z,99.90
2019-05-22T02:03:32.508Z,99.90
2019-05-22T02:06:23.359Z,99.90
2019-05-22T02:09:26.782Z,99.90
2019-05-22T02:12:23.488Z,99.90
2019-05-22T02:15:12.832Z,99.90
2019-05-22T02:18:05.029Z,99.90
2019-05-22T02:20:53.947Z,99.90
2019-05-22T02:23:25.045Z,99.90
2019-05-22T02:26:16.429Z,99.90
2019-05-22T02:29:06.404Z,99.90
2019-05-22T02:31:58.029Z,99.90
2019-05-22T02:34:47.895Z,99.90
2019-05-22T02:37:38.097Z,99.90
2019-05-22T02:40:31.425Z,99.90
2019-05-22T02:43:12.145Z,99.90
2019-05-22T02:46:00.670Z,99.90
2019-05-22T02:48:51.140Z,99.90
2019-05-22T02:51:41.293Z,99.90
2019-05-22T02:54:31.558Z,99.90
2019-05-22T02:57:21.994Z,99.90
2019-05-22T03:00:12.647Z,99.90
2019-05-22T03:03:02.877Z,99.90
2019-05-22T03:05:54.689Z,99.90
2019-05-22T03:09:20.560Z,99.90
2019-05-22T03:12:16.164Z,99.90
2019-05-22T03:15:09.152Z,99.90
2019-05-22T03:18:04.980Z,99.90
2019-05-22T03:20:53.728Z,99.90
2019-05-22T03:23:44.966Z,99.90
2019-05-22T03:26:47.985Z,99.90
2019-05-22T03:29:51.360Z,99.90
2019-05-22T03:32:44.621Z,99.90
2019-05-22T03:35:42.396Z,99.90
2019-05-22T03:38:32.652Z,99.90
2019-05-22T03:41:22.549Z,99.90
2019-05-22T03:44:13.909Z,99.90
2019-05-22T03:47:04.495Z,99.90
2019-05-22T03:49:55.480Z,99.90
2019-05-22T03:52:28.943Z,99.90
2019-05-22T03:55:18.129Z,99.90
2019-05-22T03:58:07.518Z,99.90
2019-05-22T04:00:58.103Z,99.90
2019-05-22T04:03:48.363Z,99.90
2019-05-22T04:06:20.701Z,99.90
2019-05-22T04:09:22.787Z,99.90
2019-05-22T04:12:13.221Z,99.90
2019-05-22T04:15:04.200Z,99.90
2019-05-22T04:17:53.233Z,99.90
2019-05-22T04:20:42.569Z,99.90
2019-05-22T04:23:32.763Z,99.90
2019-05-22T04:26:23.628Z,99.90
2019-05-22T04:29:13.037Z,99.90
2019-05-22T04:32:23.346Z,99.90
2019-05-22T04:35:17.788Z,99.90
2019-05-22T04:38:07.288Z,99.90
2019-05-22T04:40:53.198Z,99.90
2019-05-22T04:43:26.515Z,99.90
2019-05-22T04:45:59.195Z,99.90
2019-05-22T04:48:31.407Z,99.90
2019-05-22T04:51:41.218Z,99.90
2019-05-22T04:54:11.421Z,99.90
2019-05-22T04:57:02.145Z,99.90
2019-05-22T04:59:51.361Z,99.90
2019-05-22T05:02:40.799Z,99.90
2019-05-22T05:05:11.714Z,99.90
2019-05-22T05:07:44.023Z,99.90
2019-05-22T05:10:33.787Z,99.90
2019-05-22T05:13:24.188Z,99.90
2019-05-22T05:16:13.365Z,99.90
2019-05-22T05:19:03.140Z,99.90
2019-05-22T05:21:53.232Z,99.90
2019-05-22T05:24:42.374Z,99.90
2019-05-22T05:27:32.709Z,99.90
2019-05-22T05:30:23.666Z,99.90
2019-05-22T05:33:14.013Z,99.90
2019-05-22T05:36:04.445Z,99.90
2019-05-22T05:38:54.894Z,99.90
2019-05-22T05:41:44.843Z,99.90
2019-05-22T05:44:33.900Z,99.90
2019-05-22T05:47:24.005Z,99.90
2019-05-22T05:50:14.739Z,99.90
2019-05-22T05:53:06.540Z,99.90
2019-05-22T05:56:10.619Z,99.90
2019-05-22T05:59:00.319Z,99.90
2019-05-22T06:01:53.220Z,99.90
2019-05-22T06:04:42.488Z,99.90
2019-05-22T06:07:31.391Z,99.90
2019-05-22T06:11:05.932Z,99.90
2019-05-22T06:13:57.618Z,99.90
2019-05-22T06:17:50.650Z,99.90
2019-05-22T06:20:24.047Z,99.90
2019-05-22T06:23:52.445Z,99.90
2019-05-22T06:26:45.473Z,99.90
2019-05-22T06:29:17.700Z,99.90
2019-05-22T06:31:58.992Z,99.90
2019-05-22T06:34:29.398Z,99.90
2019-05-22T06:37:04.151Z,99.90
2019-05-22T06:39:35.359Z,99.90
2019-05-22T06:42:06.142Z,99.90
2019-05-22T06:44:42.105Z,99.90
2019-05-22T06:47:23.354Z,99.90
2019-05-22T06:50:00.803Z,99.90
2019-05-22T06:52:30.929Z,99.90
2019-05-22T06:55:03.378Z,99.90
2019-05-22T06:57:35.025Z,99.90
2019-05-22T07:00:21.620Z,99.90
2019-05-22T07:02:52.110Z,99.90
2019-05-22T07:05:22.947Z,99.90
2019-05-22T07:07:53.302Z,99.90
2019-05-22T07:10:24.833Z,99.90
2019-05-22T07:12:55.089Z,99.90
2019-05-22T07:15:36.328Z,99.90
2019-05-22T07:18:07.298Z,99.90
2019-05-22T07:20:39.978Z,99.90
2019-05-22T07:23:15.041Z,99.90
2019-05-22T07:25:46.431Z,99.90
2019-05-22T07:28:19.389Z,99.90
2019-05-22T07:30:50.687Z,99.90
2019-05-22T07:33:23.779Z,99.90
2019-05-22T07:36:09.390Z,99.90
2019-05-22T07:38:27.370Z,99.90
2019-05-22T07:40:58.470Z,99.90
2019-05-22T07:43:28.640Z,99.90
2019-05-22T07:45:58.906Z,99.90
2019-05-22T07:48:30.949Z,99.90
2019-05-22T07:51:04.077Z,99.90
2019-05-22T07:53:34.420Z,99.90
2019-05-22T07:56:08.588Z,99.90
2019-05-22T07:58:38.977Z,99.90
2019-05-22T08:01:11.375Z,99.90
2019-05-22T08:03:44.655Z,99.90
2019-05-22T08:06:15.469Z,99.90
2019-05-22T08:08:46.882Z,99.90
2019-05-22T08:11:19.025Z,99.90
2019-05-22T08:13:50.689Z,99.90
2019-05-22T08:16:21.622Z,99.90
2019-05-22T08:18:52.432Z,99.90
2019-05-22T08:21:23.877Z,99.90
2019-05-22T08:23:55.898Z,99.90
2019-05-22T08:26:27.038Z,99.90
2019-05-22T08:28:58.468Z,99.90
2019-05-22T08:31:29.263Z,99.90
2019-05-22T08:34:00.559Z,99.90
2019-05-22T08:36:50.822Z,99.90
2019-05-22T08:39:40.474Z,99.90
2019-05-22T08:42:29.842Z,99.90
2019-05-22T08:45:20.522Z,99.90
2019-05-22T08:48:10.193Z,99.90
2019-05-22T08:51:00.286Z,99.90
2019-05-22T08:53:49.632Z,99.90
2019-05-22T08:56:41.202Z,99.90
2019-05-22T08:59:30.580Z,99.90
2019-05-22T09:02:20.311Z,99.90
2019-05-22T09:05:10.025Z,99.90
2019-05-22T09:07:59.419Z,99.90
2019-05-22T09:10:49.369Z,99.90
2019-05-22T09:13:38.960Z,99.90
2019-05-22T09:16:28.031Z,99.90
2019-05-22T09:19:17.454Z,99.90
2019-05-22T09:22:08.513Z,99.90
2019-05-22T09:24:58.447Z,99.90
2019-05-22T09:27:47.695Z,99.90
2019-05-22T09:30:36.732Z,99.90
2019-05-22T09:33:25.993Z,99.90
2019-05-22T09:36:16.178Z,99.90
2019-05-22T09:39:07.559Z,99.90
2019-05-22T09:41:56.698Z,99.90
2019-05-22T09:44:46.282Z,99.90
2019-05-22T09:47:36.369Z,99.90
2019-05-22T09:50:26.160Z,99.90
2019-05-22T09:53:16.511Z,99.90
2019-05-22T09:56:05.898Z,99.90
2019-05-22T09:58:55.242Z,99.90
2019-05-22T10:01:45.256Z,99.90
2019-05-22T10:04:34.683Z,99.90
2019-05-22T10:07:24.590Z,99.90
2019-05-22T10:10:13.891Z,99.90
2019-05-22T10:13:03.156Z,99.90
2019-05-22T10:15:52.692Z,99.90
2019-05-22T10:18:42.855Z,99.90
2019-05-22T10:21:32.397Z,99.90
2019-05-22T10:24:22.169Z,99.90
2019-05-22T10:27:13.317Z,99.90
2019-05-22T10:30:03.325Z,99.90
2019-05-22T10:32:52.235Z,99.90
2019-05-22T10:35:41.018Z,99.90
2019-05-22T10:38:30.551Z,99.90
2019-05-22T10:41:21.128Z,99.90
2019-05-22T10:44:11.020Z,99.90
2019-05-22T10:46:59.993Z,99.90
2019-05-22T10:49:49.730Z,99.90
2019-05-22T10:52:39.453Z,99.90
2019-05-22T10:55:29.044Z,99.90
2019-05-22T10:58:17.988Z,99.90
2019-05-22T11:01:09.056Z,99.90
2019-05-22T11:03:59.449Z,99.90
2019-05-22T11:06:48.831Z,99.90
2019-05-22T11:09:39.759Z,99.90
2019-05-22T11:12:29.121Z,99.90
2019-05-22T11:15:18.996Z,99.90
2019-05-22T11:18:08.414Z,99.90
2019-05-22T11:20:57.430Z,99.90
2019-05-22T11:23:51.856Z,99.90
2019-05-22T11:26:37.361Z,99.90
2019-05-22T11:29:26.469Z,99.90
2019-05-22T11:32:15.726Z,99.90
2019-05-22T11:35:05.475Z,99.90
2019-05-22T11:37:54.802Z,99.90
2019-05-22T11:40:43.841Z,99.90
2019-05-22T11:43:33.420Z,99.90
2019-05-22T11:46:22.805Z,99.90
2019-05-22T11:49:12.749Z,99.90
2019-05-22T11:52:02.568Z,99.90
2019-05-22T11:54:51.981Z,99.90
2019-05-22T11:57:42.839Z,99.90
2019-05-22T12:00:31.752Z,99.90
2019-05-22T12:03:22.846Z,99.90
2019-05-22T12:06:12.537Z,99.90
2019-05-22T12:09:01.379Z,99.90
2019-05-22T12:11:50.913Z,99.90
2019-05-22T12:14:40.060Z,99.90
2019-05-22T12:17:38.102Z,99.90
2019-05-22T12:20:21.635Z,99.90
2019-05-22T12:23:11.576Z,99.90
2019-05-22T12:26:01.195Z,99.90
2019-05-22T12:28:51.260Z,99.90
2019-05-22T12:31:40.332Z,99.90
2019-05-22T12:34:29.497Z,99.90
2019-05-22T12:37:19.062Z,99.90
2019-05-22T12:40:10.557Z,99.90
2019-05-22T12:43:00.512Z,99.90
2019-05-22T12:45:49.835Z,99.90
2019-05-22T12:48:40.880Z,99.90
2019-05-22T12:51:32.838Z,99.90
2019-05-22T12:54:21.930Z,99.90
2019-05-22T12:57:11.967Z,99.90
2019-05-22T13:00:03.014Z,99.90
2019-05-22T13:02:55.130Z,99.90
2019-05-22T13:05:45.261Z,99.90
2019-05-22T13:08:35.701Z,99.90
2019-05-22T13:11:26.095Z,99.90
2019-05-22T13:14:15.582Z,99.90
2019-05-22T13:17:05.616Z,99.90
2019-05-22T13:19:56.870Z,99.90
2019-05-22T13:22:48.311Z,99.90
2019-05-22T13:25:39.570Z,99.90
2019-05-22T13:28:30.381Z,99.90
2019-05-22T13:31:19.981Z,99.90
2019-05-22T13:34:11.313Z,99.90
2019-05-22T13:37:00.706Z,99.90
2019-05-22T13:39:51.054Z,99.90
2019-05-22T13:42:40.362Z,99.90
2019-05-22T13:45:30.659Z,99.90
2019-05-22T13:48:20.200Z,99.90
2019-05-22T13:51:09.355Z,99.90
2019-05-22T13:53:59.545Z,99.90
2019-05-22T13:56:49.333Z,99.90
2019-05-22T13:59:38.559Z,99.90
2019-05-22T14:02:28.803Z,99.90
2019-05-22T14:05:18.769Z,99.90
2019-05-22T14:08:09.471Z,99.90
2019-05-22T14:10:59.834Z,99.90
2019-05-22T14:13:50.127Z,99.90
2019-05-22T14:16:48.536Z,99.90
2019-05-22T16:43:47.211Z,96.40
2019-05-22T16:46:24.435Z,95.40
2019-05-22T16:49:16.624Z,94.60
2019-05-22T16:52:08.948Z,95.10
2019-05-22T16:54:59.775Z,95.10
2019-05-22T16:57:48.981Z,95.30
2019-05-22T17:00:37.991Z,95.40
2019-05-22T17:03:30.857Z,96.30
2019-05-22T17:06:22.165Z,96.70
2019-05-22T17:09:13.764Z,96.30
2019-05-22T17:12:07.371Z,95.90
2019-05-22T17:14:57.753Z,96.40
2019-05-22T17:17:48.076Z,96.30
2019-05-22T17:20:48.577Z,95.90
2019-05-22T17:23:42.846Z,96.10
2019-05-22T17:26:32.889Z,95.50
2019-05-22T17:29:21.909Z,96.50
2019-05-22T17:32:13.998Z,95.50
2019-05-22T17:35:09.237Z,96.60
2019-05-22T17:38:08.067Z,96.70
2019-05-22T17:41:01.460Z,95.10
2019-05-22T17:43:51.354Z,95.50
2019-05-22T17:46:44.604Z,95.60
2019-05-22T17:49:35.342Z,95.90
2019-05-22T17:52:26.115Z,96.30
2019-05-22T17:55:16.287Z,96.40
2019-05-22T17:58:06.117Z,95.50
2019-05-22T18:00:58.341Z,95.70
2019-05-22T18:03:48.027Z,96.10
2019-05-22T18:06:37.355Z,96.00
2019-05-22T18:09:26.958Z,97.00
2019-05-22T18:12:17.983Z,97.80
2019-05-22T18:15:10.113Z,98.60
2019-05-22T18:17:59.954Z,99.00
2019-05-22T18:20:50.204Z,98.20
2019-05-22T18:23:40.111Z,98.50
2019-05-22T18:26:30.148Z,99.60
2019-05-22T18:29:19.311Z,99.10
2019-05-22T18:32:08.725Z,99.90
2019-05-22T18:34:39.053Z,99.80
2019-05-22T18:37:09.892Z,99.90
2019-05-22T18:39:40.546Z,99.90
2019-05-22T18:42:11.440Z,99.90
2019-05-22T18:44:41.730Z,99.90
2019-05-22T18:47:13.259Z,99.90
2019-05-22T18:49:43.701Z,99.90
2019-05-22T18:52:14.029Z,99.90
2019-05-22T18:54:44.322Z,99.90
2019-05-22T18:57:14.997Z,99.90
2019-05-22T18:59:45.552Z,99.90
2019-05-22T19:02:17.091Z,99.90
2019-05-22T19:04:47.316Z,99.90
2019-05-22T19:07:17.850Z,99.90
2019-05-22T19:09:48.107Z,99.90
2019-05-22T19:12:19.417Z,99.90
2019-05-22T19:14:49.855Z,99.90
2019-05-22T19:17:20.296Z,99.90
2019-05-22T19:19:51.356Z,99.90
2019-05-22T19:22:22.118Z,99.90
2019-05-22T19:24:52.934Z,99.90
2019-05-22T19:27:23.327Z,99.90
2019-05-22T19:29:53.625Z,99.90
2019-05-22T19:32:24.041Z,99.90
2019-05-22T19:34:54.549Z,99.90
2019-05-22T19:37:25.406Z,99.90
2019-05-22T19:39:56.033Z,99.90
2019-05-22T19:42:26.021Z,99.90
2019-05-22T19:44:57.672Z,99.90
2019-05-22T19:47:31.295Z,99.90
2019-05-22T19:50:04.422Z,99.90
2019-05-22T19:53:15.791Z,99.90
2019-05-22T19:55:52.941Z,99.90
2019-05-22T19:58:42.184Z,99.90
2019-05-22T20:01:32.130Z,99.90
2019-05-22T20:04:20.981Z,99.90
2019-05-22T20:07:11.087Z,99.90
2019-05-22T20:10:02.429Z,99.90
2019-05-22T20:12:52.094Z,99.90
2019-05-22T20:15:42.303Z,99.90
2019-05-22T20:18:31.127Z,99.90
2019-05-22T20:21:20.737Z,99.90
2019-05-22T20:24:10.281Z,99.90
2019-05-22T20:27:00.025Z,99.90
2019-05-22T20:29:49.964Z,99.90
2019-05-22T20:32:39.784Z,99.90
2019-05-22T20:35:29.245Z,99.90
2019-05-22T20:38:19.093Z,99.90
2019-05-22T20:41:08.751Z,99.90
2019-05-22T20:44:01.251Z,99.90
2019-05-22T20:46:50.870Z,99.90
2019-05-22T20:49:41.991Z,99.90
2019-05-22T20:52:32.804Z,99.90
2019-05-22T20:55:22.663Z,99.90
2019-05-22T20:58:13.491Z,99.90
2019-05-22T21:01:04.997Z,99.90
2019-05-22T21:03:54.378Z,99.90
2019-05-22T21:06:51.415Z,99.90
2019-05-22T21:09:42.002Z,99.90
2019-05-22T21:12:36.077Z,99.90
2019-05-22T21:15:27.350Z,99.90
2019-05-22T21:18:18.755Z,99.90
2019-05-22T21:21:09.389Z,99.90
2019-05-22T21:24:10.544Z,99.90
2019-05-22T21:26:49.846Z,99.90
2019-05-22T21:29:39.281Z,99.90
2019-05-22T21:32:29.134Z,99.90
2019-05-22T21:35:19.441Z,99.90
2019-05-22T21:38:11.972Z,99.90
2019-05-22T21:41:02.110Z,99.90
2019-05-22T21:43:52.602Z,99.90
2019-05-22T21:46:42.895Z,99.90
2019-05-22T21:49:32.163Z,99.90
2019-05-22T21:52:21.876Z,99.90
2019-05-22T21:55:13.362Z,99.90
2019-05-22T21:58:02.837Z,99.90
2019-05-22T22:01:14.795Z,99.90
2019-05-22T22:04:26.109Z,99.90
2019-05-22T22:07:15.349Z,99.90
2019-05-22T22:10:06.804Z,99.90
2019-05-22T22:12:58.088Z,99.90
2019-05-22T22:15:49.185Z,99.90
2019-05-22T22:18:40.019Z,99.90
2019-05-22T22:21:30.039Z,99.90
2019-05-22T22:24:19.965Z,99.90
2019-05-22T22:27:10.353Z,99.90
2019-05-22T22:30:02.410Z,99.90
2019-05-22T22:33:57.828Z,99.90
2019-05-22T22:36:39.513Z,99.90
2019-05-22T22:39:31.598Z,99.90
2019-05-22T22:42:22.306Z,99.90
2019-05-22T22:45:20.197Z,99.90
2019-05-22T22:48:09.848Z,99.90
2019-05-22T22:51:00.396Z,99.90
2019-05-22T22:53:50.053Z,99.90
2019-05-22T22:56:39.080Z,99.90
2019-05-22T22:59:28.362Z,99.90
2019-05-22T23:02:20.006Z,99.90
2019-05-22T23:05:11.966Z,99.90
2019-05-22T23:08:02.244Z,99.90
2019-05-22T23:10:51.953Z,99.90
2019-05-22T23:13:41.757Z,99.90
2019-05-22T23:16:31.066Z,99.90
2019-05-22T23:19:47.263Z,99.90
2019-05-22T23:22:34.599Z,99.90
2019-05-22T23:25:23.827Z,99.90
2019-05-22T23:28:13.094Z,99.90
2019-05-22T23:31:03.830Z,99.90
2019-05-22T23:33:53.345Z,99.90
2019-05-22T23:36:42.875Z,99.90
2019-05-22T23:39:33.654Z,99.90
2019-05-22T23:42:28.537Z,99.90
2019-05-22T23:45:20.374Z,99.90
2019-05-22T23:48:14.716Z,99.90
2019-05-22T23:51:04.906Z,99.90
2019-05-22T23:53:55.978Z,99.90
2019-05-22T23:56:45.664Z,99.90
2019-05-22T23:59:36.632Z,99.90
